Time;durP1;ratioP1;P1;durP2;ratioP2;P2;SDS_P1;SDS_P2;PMS_P1;PMS_P2;Temp;Humidity;BMP_temperature;BMP_pressure;BME280_temperature;BME280_humidity;BME280_pressure;Samples;Min_cycle;Max_cycle;Signal;HPM_P1;HPM_P2
2022/03/24 00:01:27;;;;;;;29.92;19.05;;;7.60;76.00;;;;;;5032626;28;20091;-53
2022/03/24 00:03:53;;;;;;;32.53;20.58;;;7.50;76.60;;;;;;5029262;28;20028;-53
2022/03/24 00:06:18;;;;;;;36.03;22.13;;;7.50;77.40;;;;;;5029060;28;20025;-53
2022/03/24 00:08:45;;;;;;;35.58;21.92;;;7.50;78.00;;;;;;5034075;28;20123;-53
2022/03/24 00:11:10;;;;;;;30.98;20.50;;;7.50;78.60;;;;;;5028824;28;20044;-52
2022/03/24 00:13:39;;;;;;;35.55;21.50;;;7.40;79.80;;;;;;5028769;28;20026;-54
2022/03/24 00:16:04;;;;;;;31.52;19.67;;;7.40;80.10;;;;;;5032204;28;20025;-52
2022/03/24 00:18:32;;;;;;;29.92;21.10;;;7.30;81.50;;;;;;5028947;28;20083;-51
2022/03/24 00:20:58;;;;;;;29.17;19.83;;;7.30;82.30;;;;;;5031147;28;20102;-51
2022/03/24 00:23:23;;;;;;;;;;;7.20;83.20;;;;;;5028765;28;20025;-50
2022/03/24 00:25:49;;;;;;;31.23;20.27;;;7.20;83.70;;;;;;5028513;28;19913;-52
2022/03/24 00:28:15;;;;;;;36.50;21.15;;;7.10;84.40;;;;;;5028643;28;20021;-49
2022/03/24 00:30:40;;;;;;;30.58;20.27;;;7.10;85.40;;;;;;5029693;28;20025;-53
2022/03/24 00:33:07;;;;;;;38.63;21.10;;;7.00;86.10;;;;;;5028241;28;20573;-50
2022/03/24 00:35:32;;;;;;;;;;;7.00;86.60;;;;;;5028284;28;20433;-50
2022/03/24 00:37:58;;;;;;;33.47;20.05;;;6.90;87.40;;;;;;5028246;28;20007;-50
2022/03/24 00:40:23;;;;;;;33.42;20.58;;;6.90;88.40;;;;;;5035159;28;20222;-50
2022/03/24 00:42:50;;;;;;;30.58;20.20;;;6.90;88.50;;;;;;5034576;28;20395;-53
2022/03/24 00:45:18;;;;;;;35.65;20.27;;;6.80;88.90;;;;;;5034719;28;20017;-51
2022/03/24 00:47:45;;;;;;;32.42;19.77;;;6.80;89.30;;;;;;5037192;28;20427;-55
2022/03/24 00:50:11;;;;;;;33.35;20.60;;;6.70;89.30;;;;;;5030302;28;20394;-54
2022/03/24 00:52:41;;;;;;;29.88;20.50;;;6.70;89.80;;;;;;5033208;28;20017;-51
2022/03/24 00:55:15;;;;;;;34.05;19.30;;;6.70;89.80;;;;;;5030303;28;20021;-54
2022/03/24 00:57:42;;;;;;;31.30;20.20;;;6.60;90.30;;;;;;5033566;28;20033;-54
2022/03/24 01:00:15;;;;;;;33.67;20.83;;;6.60;90.00;;;;;;5029954;28;20025;-52
2022/03/24 01:02:41;;;;;;;37.38;21.27;;;6.50;90.40;;;;;;5028096;28;20056;-53
2022/03/24 01:05:08;;;;;;;32.15;20.30;;;6.50;91.20;;;;;;5030093;28;20020;-54
2022/03/24 01:07:34;;;;;;;32.78;19.58;;;6.50;91.00;;;;;;5029904;28;20056;-52
2022/03/24 01:10:00;;;;;;;41.90;21.27;;;6.50;91.10;;;;;;5029375;28;20120;-53
2022/03/24 01:12:25;;;;;;;31.20;19.80;;;6.40;91.10;;;;;;5026891;28;20160;-50
2022/03/24 01:14:51;;;;;;;29.45;19.33;;;6.40;91.10;;;;;;5029061;28;20498;-53
2022/03/24 01:17:17;;;;;;;38.58;21.40;;;6.40;91.40;;;;;;5028333;28;20045;-51
2022/03/24 01:19:44;;;;;;;32.45;20.30;;;6.40;91.30;;;;;;5031076;28;20037;-52
2022/03/24 01:22:09;;;;;;;33.70;20.23;;;6.40;91.40;;;;;;5027478;28;20305;-53
2022/03/24 01:24:38;;;;;;;36.17;21.58;;;6.40;91.40;;;;;;5028234;28;20039;-51
2022/03/24 01:27:07;;;;;;;37.50;20.48;;;6.30;91.60;;;;;;5030386;28;20037;-55
2022/03/24 01:29:33;;;;;;;30.48;18.10;;;6.30;91.70;;;;;;5027458;28;20048;-55
2022/03/24 01:31:59;;;;;;;28.83;19.00;;;6.30;92.10;;;;;;5027985;28;20055;-54
2022/03/24 01:34:25;;;;;;;33.40;19.17;;;6.20;92.50;;;;;;5027834;28;20196;-54
2022/03/24 01:36:51;;;;;;;;;;;6.20;92.70;;;;;;5030890;28;20112;-55
2022/03/24 01:39:17;;;;;;;30.38;17.25;;;6.10;92.90;;;;;;5028048;28;20358;-54
2022/03/24 01:41:45;;;;;;;31.30;20.08;;;6.10;92.70;;;;;;5026655;28;20037;-54
2022/03/24 01:44:13;;;;;;;34.40;21.33;;;6.00;92.70;;;;;;5028984;28;20037;-52
2022/03/24 01:46:54;;;;;;;34.20;20.63;;;5.90;92.70;;;;;;5025889;28;20477;-52
2022/03/24 01:49:20;;;;;;;31.77;19.08;;;5.80;93.20;;;;;;5029656;28;20091;-52
2022/03/24 01:51:45;;;;;;;36.35;19.38;;;5.80;93.10;;;;;;5034325;28;20025;-53
2022/03/24 01:54:12;;;;;;;30.98;18.50;;;5.80;93.50;;;;;;5033316;28;20055;-51
2022/03/24 01:56:40;;;;;;;34.78;20.98;;;5.80;93.70;;;;;;5035579;28;20033;-54
2022/03/24 01:59:07;;;;;;;34.95;19.17;;;5.70;93.50;;;;;;5036991;28;20029;-52
2022/03/24 02:01:35;;;;;;;28.88;20.45;;;5.70;93.60;;;;;;5026593;28;20070;-52
2022/03/24 02:04:04;;;;;;;36.40;20.70;;;5.70;93.70;;;;;;5027674;28;20033;-51
2022/03/24 02:06:33;;;;;;;30.98;19.55;;;5.70;93.70;;;;;;5026603;28;20522;-51
2022/03/24 02:08:59;;;;;;;36.47;19.48;;;5.60;94.10;;;;;;5030029;28;20409;-55
2022/03/24 02:11:29;;;;;;;29.40;17.20;;;5.60;93.90;;;;;;5028338;28;20025;-52
2022/03/24 02:13:55;;;;;;;31.02;18.95;;;5.70;94.00;;;;;;5030063;28;20034;-48
2022/03/24 02:16:27;;;;;;;35.25;18.98;;;5.70;93.90;;;;;;5041346;28;20371;-52
2022/03/24 02:18:58;;;;;;;36.22;19.30;;;5.70;93.80;;;;;;5031217;28;20029;-53
2022/03/24 02:21:23;;;;;;;30.48;20.38;;;5.60;93.90;;;;;;5027615;28;20481;-54
2022/03/24 02:23:50;;;;;;;38.67;23.17;;;5.60;94.00;;;;;;5026807;28;20103;-53
2022/03/24 02:26:17;;;;;;;64.95;32.67;;;5.60;93.90;;;;;;5026951;28;20494;-55
2022/03/24 02:28:45;;;;;;;58.38;33.75;;;5.60;93.80;;;;;;5027179;28;20481;-50
2022/03/24 02:31:14;;;;;;;44.55;25.13;;;5.50;93.90;;;;;;5029130;28;20025;-52
2022/03/24 02:33:40;;;;;;;53.25;28.35;;;5.50;94.20;;;;;;5034611;28;20087;-54
2022/03/24 02:36:07;;;;;;;49.65;28.83;;;5.50;94.30;;;;;;5042450;28;20037;-51
2022/03/24 02:38:33;;;;;;;47.20;25.10;;;5.50;94.20;;;;;;5036597;28;20486;-52
2022/03/24 02:40:58;;;;;;;37.92;22.90;;;5.50;94.50;;;;;;5031181;28;20034;-54
2022/03/24 02:43:24;;;;;;;48.78;27.33;;;5.50;94.70;;;;;;5029799;28;20025;-52
2022/03/24 02:45:50;;;;;;;44.75;27.00;;;5.60;94.50;;;;;;5029312;28;20599;-52
2022/03/24 02:48:16;;;;;;;;;;;5.50;94.50;;;;;;5030204;28;20037;-52
2022/03/24 02:50:42;;;;;;;43.83;24.67;;;5.50;94.40;;;;;;5028892;28;19909;-53
2022/03/24 02:53:09;;;;;;;42.20;23.95;;;5.50;94.40;;;;;;5030323;28;20545;-54
2022/03/24 02:55:34;;;;;;;35.00;21.80;;;5.50;94.40;;;;;;5036660;28;20045;-54
2022/03/24 02:58:00;;;;;;;35.75;22.10;;;5.40;94.50;;;;;;5031799;28;20363;-49
2022/03/24 03:00:27;;;;;;;38.65;22.48;;;5.40;94.60;;;;;;5030555;28;20033;-54
2022/03/24 03:02:53;;;;;;;39.65;23.23;;;5.40;94.60;;;;;;5031299;28;20064;-50
2022/03/24 03:05:19;;;;;;;;;;;5.30;94.70;;;;;;5036076;28;20025;-51
2022/03/24 03:07:45;;;;;;;37.78;21.70;;;5.30;94.90;;;;;;5036161;28;19912;-53
2022/03/24 03:10:11;;;;;;;33.13;20.08;;;5.20;95.10;;;;;;5035666;28;20505;-51
2022/03/24 03:12:37;;;;;;;32.90;20.45;;;5.20;95.20;;;;;;5036216;28;20037;-51
2022/03/24 03:15:04;;;;;;;38.90;21.40;;;5.20;95.20;;;;;;5037792;28;20041;-51
2022/03/24 03:17:30;;;;;;;38.28;24.58;;;5.20;95.30;;;;;;5035821;28;20274;-50
2022/03/24 03:19:56;;;;;;;34.78;22.13;;;5.10;95.20;;;;;;5038794;28;20023;-49
2022/03/24 03:22:22;;;;;;;37.95;21.58;;;5.10;95.20;;;;;;5037814;28;20041;-50
2022/03/24 03:24:47;;;;;;;35.90;21.80;;;5.00;95.20;;;;;;5029771;28;20681;-51
2022/03/24 03:27:14;;;;;;;32.90;20.90;;;5.00;95.30;;;;;;5029937;28;20030;-52
2022/03/24 03:29:40;;;;;;;35.13;20.38;;;5.00;95.30;;;;;;5032478;28;20064;-50
2022/03/24 03:32:07;;;;;;;33.40;19.95;;;5.00;95.30;;;;;;5031820;28;20143;-53
2022/03/24 03:34:32;;;;;;;;;;;5.00;95.30;;;;;;5029823;28;20032;-53
2022/03/24 03:36:59;;;;;;;34.53;20.60;;;5.00;95.40;;;;;;5040871;28;19916;-55
2022/03/24 03:39:25;;;;;;;30.35;19.08;;;5.00;95.50;;;;;;5041476;28;20293;-55
2022/03/24 03:41:51;;;;;;;36.75;21.38;;;5.00;95.50;;;;;;5031041;28;20031;-51
2022/03/24 03:44:17;;;;;;;;;;;5.00;95.70;;;;;;5034296;28;20025;-54
2022/03/24 03:46:43;;;;;;;33.80;19.65;;;5.00;95.70;;;;;;5032128;28;20841;-55
2022/03/24 03:49:09;;;;;;;32.65;19.38;;;5.00;95.60;;;;;;5029099;28;20029;-53
2022/03/24 03:51:37;;;;;;;34.72;21.13;;;5.00;95.70;;;;;;5031714;28;20029;-51
2022/03/24 03:54:04;;;;;;;36.05;21.48;;;5.00;95.80;;;;;;5033116;28;20026;-51
2022/03/24 03:56:30;;;;;;;29.95;19.67;;;4.90;95.90;;;;;;5034888;28;20513;-51
2022/03/24 03:58:56;;;;;;;34.03;18.55;;;4.90;96.00;;;;;;5039109;28;20437;-50
2022/03/24 04:01:21;;;;;;;34.88;21.45;;;4.90;96.10;;;;;;5030617;28;20030;-50
2022/03/24 04:03:48;;;;;;;35.35;21.90;;;4.90;96.10;;;;;;5028637;28;20029;-54
2022/03/24 04:06:14;;;;;;;33.30;20.80;;;4.80;96.20;;;;;;5030290;28;20475;-54
2022/03/24 04:08:43;;;;;;;;;;;4.80;96.20;;;;;;5028374;28;20104;-53
2022/03/24 04:11:10;;;;;;;28.83;17.10;;;4.80;96.20;;;;;;5028009;28;19975;-49
2022/03/24 04:13:40;;;;;;;34.00;20.42;;;4.80;96.20;;;;;;5028379;28;20613;-54
2022/03/24 04:16:14;;;;;;;32.63;20.80;;;4.80;96.20;;;;;;5036022;28;20374;-55
2022/03/24 04:18:42;;;;;;;35.60;21.38;;;4.70;96.10;;;;;;5033013;28;20132;-49
2022/03/24 04:21:08;;;;;;;31.85;20.58;;;4.70;96.20;;;;;;5028602;28;20017;-51
2022/03/24 04:23:38;;;;;;;36.33;22.30;;;4.70;96.20;;;;;;5028453;28;20022;-51
2022/03/24 04:26:05;;;;;;;38.42;23.83;;;4.70;96.20;;;;;;5034518;28;20040;-51
2022/03/24 04:28:30;;;;;;;43.40;24.58;;;4.70;96.10;;;;;;5027786;28;20030;-48
2022/03/24 04:30:56;;;;;;;40.25;20.75;;;4.60;96.10;;;;;;5028793;28;20087;-51
2022/03/24 04:33:22;;;;;;;32.83;19.23;;;4.60;96.20;;;;;;5028970;28;20049;-55
2022/03/24 04:35:47;;;;;;;41.53;22.17;;;4.60;96.20;;;;;;5030439;28;20037;-52
2022/03/24 04:38:14;;;;;;;35.85;23.05;;;4.60;96.40;;;;;;5028888;28;20034;-53
2022/03/24 04:40:40;;;;;;;66.65;36.22;;;4.60;96.50;;;;;;5031650;28;20443;-53
2022/03/24 04:43:06;;;;;;;54.65;30.88;;;4.60;96.60;;;;;;5028219;28;20025;-51
2022/03/24 04:45:33;;;;;;;43.90;24.60;;;4.50;96.70;;;;;;5028207;28;20084;-50
2022/03/24 04:48:00;;;;;;;38.67;22.75;;;4.50;96.60;;;;;;5031200;28;20025;-49
2022/03/24 04:50:26;;;;;;;42.38;24.20;;;4.50;96.70;;;;;;5035072;28;20032;-52
2022/03/24 04:52:51;;;;;;;;;;;4.40;96.80;;;;;;5034275;28;20117;-50
2022/03/24 04:55:17;;;;;;;35.63;21.90;;;4.40;96.90;;;;;;5030915;28;20000;-54
2022/03/24 04:57:43;;;;;;;43.60;23.50;;;4.40;96.90;;;;;;5033790;28;20025;-51
2022/03/24 05:00:10;;;;;;;35.92;21.20;;;4.40;97.00;;;;;;5037721;28;20021;-54
2022/03/24 05:02:36;;;;;;;41.47;22.55;;;4.40;97.00;;;;;;5034133;28;20037;-53
2022/03/24 05:05:01;;;;;;;30.95;20.30;;;4.30;97.30;;;;;;5036734;28;20465;-51
2022/03/24 05:07:27;;;;;;;36.67;21.63;;;4.30;97.30;;;;;;5037003;28;20053;-53
2022/03/24 05:09:53;;;;;;;35.90;22.30;;;4.20;97.40;;;;;;5034083;28;20032;-53
2022/03/24 05:12:19;;;;;;;50.92;28.05;;;4.20;97.40;;;;;;5030672;28;20482;-49
2022/03/24 05:14:44;;;;;;;47.10;27.35;;;4.20;97.50;;;;;;5030736;28;20029;-55
2022/03/24 05:17:10;;;;;;;58.03;31.58;;;4.10;97.40;;;;;;5030637;28;20522;-51
2022/03/24 05:19:35;;;;;;;72.43;36.83;;;4.10;97.60;;;;;;5026616;28;20022;-54
2022/03/24 05:22:01;;;;;;;53.40;31.33;;;4.00;97.50;;;;;;5028001;28;20032;-50
2022/03/24 05:24:27;;;;;;;46.67;27.65;;;4.10;97.70;;;;;;5029859;28;20434;-52
2022/03/24 05:26:52;;;;;;;51.78;28.73;;;4.10;97.70;;;;;;5027483;28;20029;-52
2022/03/24 05:29:19;;;;;;;45.92;27.77;;;4.10;97.60;;;;;;5030008;28;20075;-51
2022/03/24 05:31:45;;;;;;;58.97;31.92;;;4.00;97.60;;;;;;5031486;28;20040;-55
2022/03/24 05:34:11;;;;;;;;;;;4.10;97.60;;;;;;5029984;28;20553;-51
2022/03/24 05:36:36;;;;;;;45.50;26.27;;;4.10;97.70;;;;;;5029571;28;19916;-51
2022/03/24 05:39:02;;;;;;;46.67;26.67;;;4.10;97.70;;;;;;5027287;28;20028;-48
2022/03/24 05:41:28;;;;;;;45.25;25.08;;;4.10;97.70;;;;;;5026618;28;20091;-53
2022/03/24 05:44:02;;;;;;;53.53;31.58;;;4.10;97.60;;;;;;5029473;28;20025;-51
2022/03/24 05:46:44;;;;;;;39.38;25.42;;;4.10;97.40;;;;;;5027730;28;20042;-48
2022/03/24 05:49:14;;;;;;;39.92;23.92;;;4.10;97.40;;;;;;5032273;28;20494;-51
2022/03/24 05:51:42;;;;;;;47.53;26.02;;;4.10;97.50;;;;;;5030873;28;20160;-52
2022/03/24 05:54:08;;;;;;;39.70;20.40;;;4.10;97.40;;;;;;5030102;28;20131;-52
2022/03/24 05:56:34;;;;;;;48.10;25.70;;;4.10;97.60;;;;;;5027553;28;20596;-51
2022/03/24 05:59:00;;;;;;;44.47;24.05;;;4.00;97.60;;;;;;5032922;28;20053;-52
2022/03/24 06:01:26;;;;;;;38.92;22.70;;;4.00;97.60;;;;;;5025935;28;20056;-49
2022/03/24 06:03:52;;;;;;;39.33;23.38;;;4.10;97.60;;;;;;5033385;28;20053;-50
2022/03/24 06:06:18;;;;;;;;;;;4.10;97.60;;;;;;5027163;28;20788;-53
2022/03/24 06:08:43;;;;;;;43.83;24.90;;;4.10;97.60;;;;;;5032290;28;20180;-50
2022/03/24 06:11:13;;;;;;;40.83;22.92;;;4.10;97.60;;;;;;5027791;28;20037;-50
2022/03/24 06:13:42;;;;;;;43.00;23.05;;;4.10;97.50;;;;;;5032883;28;20029;-53
2022/03/24 06:16:08;;;;;;;34.30;20.80;;;4.20;97.50;;;;;;5029691;28;20040;-50
2022/03/24 06:18:36;;;;;;;37.15;20.58;;;4.20;97.60;;;;;;5026833;28;20024;-51
2022/03/24 06:21:02;;;;;;;40.25;21.35;;;4.30;97.40;;;;;;5027222;28;20364;-50
2022/03/24 06:23:28;;;;;;;;;;;4.40;97.40;;;;;;5027959;28;20495;-52
2022/03/24 06:25:53;;;;;;;38.08;21.98;;;4.40;97.40;;;;;;5030875;28;19913;-54
2022/03/24 06:28:19;;;;;;;45.42;22.85;;;4.50;97.30;;;;;;5030081;28;20242;-51
2022/03/24 06:30:44;;;;;;;33.53;19.85;;;4.60;97.20;;;;;;5033665;28;20025;-52
2022/03/24 06:33:10;;;;;;;35.63;19.63;;;4.70;97.20;;;;;;5027485;28;20030;-53
2022/03/24 06:35:36;;;;;;;34.22;20.70;;;4.80;97.00;;;;;;5031793;28;20037;-50
2022/03/24 06:38:02;;;;;;;;;;;4.80;96.80;;;;;;5029281;28;20024;-54
2022/03/24 06:40:28;;;;;;;35.50;19.38;;;4.90;96.60;;;;;;5028023;28;19909;-50
2022/03/24 06:42:54;;;;;;;33.67;20.58;;;4.90;96.50;;;;;;5031275;28;20486;-55
2022/03/24 06:45:20;;;;;;;41.35;23.60;;;5.00;96.50;;;;;;5036497;28;20506;-54
2022/03/24 06:47:46;;;;;;;33.08;21.58;;;5.10;96.40;;;;;;5030970;28;20283;-52
2022/03/24 06:50:13;;;;;;;35.67;19.80;;;5.20;96.30;;;;;;5037592;28;20108;-52
2022/03/24 06:52:39;;;;;;;41.22;22.27;;;5.30;96.20;;;;;;5035087;28;20036;-54
2022/03/24 06:55:06;;;;;;;32.95;22.23;;;5.40;96.00;;;;;;5038035;28;20052;-52
2022/03/24 06:57:32;;;;;;;34.97;19.55;;;5.50;95.40;;;;;;5034200;28;20030;-51
2022/03/24 06:59:57;;;;;;;35.08;21.73;;;5.50;94.90;;;;;;5035291;28;20017;-54
2022/03/24 07:02:23;;;;;;;42.95;25.38;;;5.60;95.00;;;;;;5085874;22;20051;-51
2022/03/24 07:04:49;;;;;;;50.20;26.17;;;5.70;95.10;;;;;;5084034;28;20028;-54
2022/03/24 07:07:15;;;;;;;37.30;22.10;;;5.80;95.30;;;;;;5078578;28;20302;-52
2022/03/24 07:09:40;;;;;;;42.85;22.30;;;5.90;95.20;;;;;;5069002;28;20044;-52
2022/03/24 07:12:06;;;;;;;36.15;19.48;;;6.00;94.60;;;;;;5066962;28;20033;-55
2022/03/24 07:14:31;;;;;;;34.17;21.23;;;6.10;93.60;;;;;;5058518;28;20024;-52
2022/03/24 07:16:57;;;;;;;42.00;23.00;;;6.10;93.90;;;;;;5064508;28;20033;-54
2022/03/24 07:19:22;;;;;;;46.28;22.77;;;6.20;94.10;;;;;;5063404;28;20021;-55
2022/03/24 07:21:48;;;;;;;30.75;20.30;;;6.30;93.90;;;;;;5067442;28;20037;-50
2022/03/24 07:24:14;;;;;;;33.60;20.17;;;6.30;93.70;;;;;;5072351;28;20020;-52
2022/03/24 07:26:40;;;;;;;40.42;20.45;;;6.30;93.30;;;;;;5066287;28;20028;-52
2022/03/24 07:29:06;;;;;;;42.28;20.80;;;6.40;93.20;;;;;;5070314;28;20472;-55
2022/03/24 07:31:32;;;;;;;40.53;21.25;;;6.40;93.20;;;;;;5071368;28;20028;-52
2022/03/24 07:33:58;;;;;;;37.67;20.00;;;6.50;93.20;;;;;;5070187;28;20370;-53
2022/03/24 07:36:25;;;;;;;38.03;19.60;;;6.60;92.60;;;;;;5068694;28;20044;-52
2022/03/24 07:38:53;;;;;;;38.15;21.42;;;6.70;92.60;;;;;;5068327;28;20374;-53
2022/03/24 07:41:19;;;;;;;34.90;20.45;;;6.80;92.70;;;;;;5065156;28;20040;-51
2022/03/24 07:43:45;;;;;;;34.83;20.30;;;6.90;92.10;;;;;;5067939;28;20025;-55
2022/03/24 07:46:11;;;;;;;36.10;20.83;;;6.90;91.70;;;;;;5082301;28;20109;-51
2022/03/24 07:48:38;;;;;;;36.35;19.50;;;7.00;91.40;;;;;;5070529;28;20387;-54
2022/03/24 07:51:05;;;;;;;38.90;20.02;;;7.00;91.10;;;;;;5066929;28;20036;-55
2022/03/24 07:53:49;;;;;;;34.50;20.63;;;7.10;91.40;;;;;;5077640;28;20028;-54
2022/03/24 07:56:21;;;;;;;41.33;20.05;;;7.30;92.20;;;;;;5069881;28;20460;-53
2022/03/24 07:58:46;;;;;;;36.05;20.50;;;7.40;92.00;;;;;;5075468;28;20049;-55
2022/03/24 08:01:13;;;;;;;38.13;21.17;;;7.60;91.90;;;;;;5070200;28;20388;-52
2022/03/24 08:03:38;;;;;;;41.70;20.73;;;7.70;91.80;;;;;;5066374;28;20059;-51
2022/03/24 08:06:04;;;;;;;37.75;21.15;;;7.80;91.80;;;;;;5070823;28;20040;-55
2022/03/24 08:08:30;;;;;;;39.40;20.85;;;8.00;91.60;;;;;;5068093;28;20115;-54
2022/03/24 08:10:57;;;;;;;35.88;21.05;;;8.10;91.30;;;;;;5067886;28;20122;-55
2022/03/24 08:13:23;;;;;;;38.70;19.17;;;8.20;91.20;;;;;;5069180;28;20040;-55
2022/03/24 08:15:50;;;;;;;39.15;24.95;;;8.30;91.10;;;;;;5071620;28;20035;-52
2022/03/24 08:18:17;;;;;;;36.70;20.92;;;8.30;91.10;;;;;;5067284;28;20107;-53
2022/03/24 08:20:44;;;;;;;35.40;22.83;;;8.50;90.00;;;;;;5063371;28;20044;-53
2022/03/24 08:23:11;;;;;;;43.03;25.23;;;8.50;90.10;;;;;;5068237;28;20129;-52
2022/03/24 08:25:42;;;;;;;42.40;22.15;;;8.70;89.70;;;;;;5050611;28;20025;-54
2022/03/24 08:28:10;;;;;;;37.60;21.73;;;8.70;88.60;;;;;;5067241;28;20020;-53
2022/03/24 08:30:35;;;;;;;42.92;23.40;;;8.80;86.40;;;;;;5066842;28;20025;-50
2022/03/24 08:33:00;;;;;;;37.50;21.92;;;8.80;87.50;;;;;;5068911;28;20017;-53
2022/03/24 08:35:26;;;;;;;42.45;22.30;;;8.90;86.80;;;;;;5071751;28;20111;-53
2022/03/24 08:37:52;;;;;;;38.20;21.25;;;9.10;87.80;;;;;;5073094;28;20024;-50
2022/03/24 08:40:17;;;;;;;33.58;20.55;;;9.10;86.80;;;;;;5070686;28;20023;-53
2022/03/24 08:42:44;;;;;;;35.35;21.85;;;9.20;86.30;;;;;;5068091;28;20389;-51
2022/03/24 08:45:12;;;;;;;34.80;21.73;;;9.30;84.40;;;;;;5070338;28;20117;-51
2022/03/24 08:47:38;;;;;;;36.88;22.15;;;9.50;84.40;;;;;;5068668;28;20032;-54
2022/03/24 08:50:06;;;;;;;39.13;22.67;;;9.60;83.30;;;;;;5068815;28;20142;-54
2022/03/24 08:52:32;;;;;;;42.15;22.15;;;9.70;83.50;;;;;;5067825;28;20032;-53
2022/03/24 08:54:57;;;;;;;40.33;21.77;;;9.80;82.30;;;;;;5073925;28;20111;-53
2022/03/24 08:57:27;;;;;;;41.35;23.27;;;9.90;79.50;;;;;;5077915;28;20051;-53
2022/03/24 09:00:00;;;;;;;38.15;23.67;;;9.90;78.70;;;;;;5076384;28;20476;-51
2022/03/24 09:02:26;;;;;;;37.88;22.60;;;10.10;76.60;;;;;;5072314;28;20039;-54
2022/03/24 09:04:52;;;;;;;34.85;22.05;;;10.20;75.80;;;;;;5072838;28;20060;-54
2022/03/24 09:07:18;;;;;;;41.30;21.75;;;10.20;74.40;;;;;;5076261;28;20090;-53
2022/03/24 09:09:43;;;;;;;;;;;10.30;73.70;;;;;;5074008;28;20528;-53
2022/03/24 09:12:10;;;;;;;36.15;21.30;;;10.40;71.50;;;;;;5070155;28;20308;-55
2022/03/24 09:14:37;;;;;;;34.08;21.23;;;10.60;73.90;;;;;;5070164;28;20040;-53
2022/03/24 09:17:02;;;;;;;40.80;23.73;;;10.70;72.20;;;;;;5068525;28;20032;-53
2022/03/24 09:19:29;;;;;;;37.42;23.83;;;10.80;73.70;;;;;;5065801;28;20021;-54
2022/03/24 09:21:54;;;;;;;;;;;11.00;71.30;;;;;;5063570;28;20116;-53
2022/03/24 09:24:20;;;;;;;37.60;21.55;;;11.10;71.40;;;;;;5067727;28;20065;-55
2022/03/24 09:26:45;;;;;;;44.08;23.38;;;11.30;70.60;;;;;;5066673;28;20103;-54
2022/03/24 09:29:11;;;;;;;37.95;22.48;;;11.40;70.30;;;;;;5069672;28;20067;-53
2022/03/24 09:31:36;;;;;;;34.10;22.05;;;11.40;69.30;;;;;;5066041;28;20058;-53
2022/03/24 09:34:03;;;;;;;34.45;20.42;;;11.50;69.00;;;;;;5069915;28;20028;-54
2022/03/24 09:36:29;;;;;;;37.75;21.13;;;11.60;62.40;;;;;;5072590;28;20405;-53
2022/03/24 09:38:55;;;;;;;33.95;21.30;;;11.70;62.70;;;;;;5067102;28;20024;-50
2022/03/24 09:41:21;;;;;;;37.55;21.00;;;11.70;64.10;;;;;;5070426;28;20039;-56
2022/03/24 09:43:46;;;;;;;;;;;11.80;64.40;;;;;;5071783;28;20107;-52
2022/03/24 09:46:13;;;;;;;34.45;19.70;;;11.90;61.70;;;;;;5066191;28;20043;-54
2022/03/24 09:48:42;;;;;;;48.20;22.90;;;12.10;62.60;;;;;;5069377;28;20401;-54
2022/03/24 09:51:07;;;;;;;39.95;22.23;;;12.20;63.10;;;;;;5076954;28;20020;-54
2022/03/24 09:53:33;;;;;;;42.53;23.15;;;12.30;61.60;;;;;;5066964;28;20024;-53
2022/03/24 09:55:59;;;;;;;49.55;28.13;;;12.30;62.20;;;;;;5065552;28;20130;-55
2022/03/24 09:58:25;;;;;;;;;;;12.40;62.30;;;;;;5064743;28;20059;-53
2022/03/24 10:00:51;;;;;;;41.85;21.63;;;12.40;62.70;;;;;;5077567;28;19905;-55
2022/03/24 10:03:18;;;;;;;;;;;12.40;62.60;;;;;;5064187;28;20028;-52
2022/03/24 10:06:00;;;;;;;37.42;19.23;;;12.40;62.60;;;;;;5069759;28;19919;-52
2022/03/24 10:08:27;;;;;;;33.25;22.23;;;12.50;63.50;;;;;;5069525;28;20037;-49
2022/03/24 10:11:01;;;;;;;33.08;21.25;;;12.70;61.50;;;;;;5074047;28;20039;-51
2022/03/24 10:13:54;;;;;;;39.17;22.20;;;12.80;63.10;;;;;;5070234;28;20463;-51
2022/03/24 10:16:34;;;;;;;37.28;21.65;;;13.00;59.90;;;;;;5069923;28;20086;-53
2022/03/24 10:19:03;;;;;;;42.67;22.27;;;13.10;58.60;;;;;;5075095;28;20027;-53
2022/03/24 10:21:29;;;;;;;56.08;24.98;;;13.20;58.50;;;;;;5071301;28;20096;-53
2022/03/24 10:24:00;;;;;;;35.90;22.35;;;13.30;58.70;;;;;;5068586;28;20024;-50
2022/03/24 10:26:44;;;;;;;40.53;23.42;;;13.40;58.70;;;;;;5064521;28;20029;-53
2022/03/24 10:29:21;;;;;;;34.35;21.58;;;13.40;57.60;;;;;;5063680;28;20031;-51
2022/03/24 10:31:59;;;;;;;;;;;13.40;57.10;;;;;;5072762;28;20024;-55
2022/03/24 10:34:31;;;;;;;35.28;22.08;;;13.50;54.90;;;;;;5064662;28;19977;-53
2022/03/24 10:36:57;;;;;;;33.65;20.90;;;13.60;54.50;;;;;;5066935;28;20055;-54
2022/03/24 10:39:24;;;;;;;35.15;20.80;;;13.70;55.80;;;;;;5063343;28;20029;-52
2022/03/24 10:41:50;;;;;;;38.35;23.27;;;13.80;55.70;;;;;;5072368;28;20043;-51
2022/03/24 10:44:15;;;;;;;;;;;13.90;55.30;;;;;;5074344;28;20411;-51
2022/03/24 10:46:42;;;;;;;38.95;21.77;;;14.00;54.80;;;;;;5068330;28;19916;-51
2022/03/24 10:49:23;;;;;;;38.53;23.55;;;14.10;55.30;;;;;;5067783;28;20110;-53
2022/03/24 10:51:50;;;;;;;35.55;19.00;;;14.20;54.20;;;;;;5067885;28;20048;-51
2022/03/24 10:54:15;;;;;;;32.38;20.83;;;14.20;52.40;;;;;;5074484;28;20434;-54
2022/03/24 10:56:45;;;;;;;;;;;14.30;52.20;;;;;;5071775;28;20028;-49
2022/03/24 10:59:11;;;;;;;38.38;22.02;;;14.30;52.50;;;;;;5067544;28;19935;-52
2022/03/24 11:01:37;;;;;;;;;;;14.30;49.60;;;;;;5072734;28;20580;-48
2022/03/24 11:04:03;;;;;;;35.28;20.05;;;14.30;49.90;;;;;;5065647;28;19919;-53
2022/03/24 11:06:29;;;;;;;;;;;14.30;51.60;;;;;;5067027;28;20503;-50
2022/03/24 11:08:59;;;;;;;37.73;22.07;;;14.40;51.30;;;;;;5068867;28;19905;-52
2022/03/24 11:11:25;;;;;;;36.45;22.63;;;14.50;49.90;;;;;;5070411;28;20122;-51
2022/03/24 11:14:00;;;;;;;;;;;14.60;49.30;;;;;;5073079;28;20362;-52
2022/03/24 11:16:31;;;;;;;30.52;20.02;;;14.70;48.30;;;;;;5074040;28;19915;-52
2022/03/24 11:18:59;;;;;;;31.88;19.40;;;14.70;48.30;;;;;;5067289;28;20035;-53
2022/03/24 11:21:39;;;;;;;39.03;21.58;;;14.70;47.80;;;;;;5065616;28;20024;-52
2022/03/24 11:24:06;;;;;;;33.22;20.65;;;14.70;48.00;;;;;;5073866;28;20603;-50
2022/03/24 11:26:31;;;;;;;;;;;14.70;46.80;;;;;;5079589;28;20370;-52
2022/03/24 11:28:58;;;;;;;38.83;20.95;;;14.70;47.10;;;;;;5072274;28;20415;-52
2022/03/24 11:31:25;;;;;;;36.03;20.23;;;14.60;47.70;;;;;;5073367;28;20044;-50
2022/03/24 11:34:00;;;;;;;35.28;22.50;;;14.70;48.10;;;;;;5074700;28;20032;-54
2022/03/24 11:36:28;;;;;;;35.17;21.35;;;14.90;47.70;;;;;;5074066;28;20024;-53
2022/03/24 11:38:55;;;;;;;38.67;23.08;;;15.00;48.00;;;;;;5074518;28;20028;-52
2022/03/24 11:41:32;;;;;;;35.28;18.80;;;15.10;47.20;;;;;;5072177;28;20045;-54
2022/03/24 11:44:09;;;;;;;27.98;18.48;;;15.10;47.20;;;;;;5079075;28;20026;-52
2022/03/24 11:46:49;;;;;;;38.40;22.73;;;15.10;47.40;;;;;;5066934;28;20024;-53
2022/03/24 11:49:28;;;;;;;43.75;24.52;;;15.20;47.50;;;;;;5075013;28;20439;-51
2022/03/24 11:51:56;;;;;;;31.30;19.35;;;15.30;47.10;;;;;;5069987;28;20024;-53
2022/03/24 11:54:31;;;;;;;29.83;19.08;;;15.40;46.30;;;;;;5073218;28;20127;-52
2022/03/24 11:57:26;;;;;;;27.73;18.33;;;15.40;45.10;;;;;;5071619;28;20108;-49
2022/03/24 12:00:15;;;;;;;56.33;32.28;;;15.30;44.60;;;;;;5080575;28;20028;-52
2022/03/24 12:02:51;;;;;;;32.00;21.42;;;15.20;45.70;;;;;;5073541;28;20033;-54
2022/03/24 12:05:17;;;;;;;25.80;17.90;;;15.30;47.40;;;;;;5063802;28;20506;-54
2022/03/24 12:07:42;;;;;;;27.30;17.70;;;15.50;47.90;;;;;;5067225;28;20043;-49
2022/03/24 12:10:09;;;;;;;;;;;15.80;46.90;;;;;;5075793;28;20016;-49
2022/03/24 12:12:36;;;;;;;30.00;17.90;;;15.90;47.40;;;;;;5070588;28;20023;-49
2022/03/24 12:15:23;;;;;;;50.17;32.45;;;16.10;46.80;;;;;;5069320;28;20501;-54
2022/03/24 12:18:02;;;;;;;90.15;57.72;;;16.20;45.20;;;;;;5068671;28;20028;-53
2022/03/24 12:20:28;;;;;;;40.47;24.02;;;16.20;43.20;;;;;;5066323;28;20124;-53
2022/03/24 12:22:58;;;;;;;;;;;16.00;44.00;;;;;;5067443;28;20047;-54
2022/03/24 12:25:26;;;;;;;55.08;35.67;;;15.90;45.80;;;;;;5066245;28;19913;-54
2022/03/24 12:28:25;;;;;;;28.23;18.90;;;15.90;45.30;;;;;;5067529;28;20024;-54
2022/03/24 12:30:50;;;;;;;34.53;20.67;;;16.00;44.40;;;;;;5067122;28;20049;-52
2022/03/24 12:33:17;;;;;;;;;;;15.90;44.90;;;;;;5064703;28;20679;-55
2022/03/24 12:35:55;;;;;;;29.70;19.92;;;16.00;44.00;;;;;;5072344;28;19908;-54
2022/03/24 12:38:28;;;;;;;36.22;21.48;;;16.10;44.40;;;;;;5068324;28;20044;-54
2022/03/24 12:41:06;;;;;;;34.38;20.42;;;16.10;44.20;;;;;;5065628;28;20082;-55
2022/03/24 12:43:59;;;;;;;41.25;27.00;;;16.00;43.70;;;;;;5067436;28;20024;-52
2022/03/24 12:46:26;;;;;;;28.13;18.20;;;15.90;43.60;;;;;;5072936;28;20056;-56